Time;durP1;ratioP1;P1;durP2;ratioP2;P2;SDS_P1;SDS_P2;PMS_P1;PMS_P2;Temp;Humidity;BMP_temperature;BMP_pressure;BME280_temperature;BME280_humidity;BME280_pressure;Samples;Min_cycle;Max_cycle;Signal;HPM_P1;HPM_P2
2022/03/31 00:01:45;;;;;;;;;;;;;;;-139.34;100.00;63888.56;10649418;27;20506;-70
2022/03/31 00:07:07;;;;;;;;;;;;;;;-139.34;100.00;63888.56;10627571;27;19934;-70
2022/03/31 00:12:28;;;;;;;;;;;;;;;-139.34;100.00;63888.56;10617236;27;19926;-69
2022/03/31 00:17:50;;;;;;;;;;;;;;;-139.34;100.00;63888.56;10646432;27;19933;-70
2022/03/31 00:23:13;;;;;;;;;;;;;;;-139.34;100.00;63888.56;10608444;27;19925;-70
2022/03/31 00:28:34;;;;;;;;;;;;;;;-139.34;100.00;63888.56;10638762;27;19919;-70
2022/03/31 00:33:56;;;;;;;;;;;;;;;-139.34;100.00;63888.56;10621090;27;19923;-70
2022/03/31 00:39:31;;;;;;;;;;;;;;;-139.34;100.00;63888.56;10633535;27;19923;-70
2022/03/31 00:44:53;;;;;;;;;;;;;;;-139.34;100.00;63888.56;10619878;27;19972;-71
2022/03/31 00:50:16;;;;;;;;;;;;;;;-139.34;100.00;63888.56;10618648;27;20276;-70
2022/03/31 00:55:37;;;;;;;;;;;;;;;-139.34;100.00;63888.56;10641554;27;20539;-70
2022/03/31 01:00:59;;;;;;;;;;;;;;;-139.34;100.00;63888.56;10640310;27;19923;-70
2022/03/31 01:06:22;;;;;;;;;;;;;;;-139.34;100.00;63888.56;10649454;27;20375;-70
2022/03/31 01:11:45;;;;;;;;;;;;;;;-139.34;100.00;63888.56;10639838;27;19922;-71
2022/03/31 01:17:07;;;;;;;;;;;;;;;-139.34;100.00;63888.56;10634889;27;19923;-71
2022/03/31 01:22:30;;;;;;;;;;;;;;;-139.34;100.00;63888.56;10648755;27;19970;-70
2022/03/31 01:27:52;;;;;;;;;;;;;;;-139.34;100.00;63888.56;10639706;27;19923;-71
2022/03/31 01:33:14;;;;;;;;;;;;;;;-139.34;100.00;63888.56;10657010;27;19919;-70
2022/03/31 01:38:36;;;;;;;;;;;;;;;-139.34;100.00;63888.56;10636561;27;19938;-72
2022/03/31 01:43:58;;;;;;;;;;;;;;;-139.34;100.00;63888.56;10604686;27;19923;-70
2022/03/31 01:49:19;;;;;;;;;;;;;;;-139.34;100.00;63888.56;10616607;27;19989;-71
2022/03/31 01:54:41;;;;;;;;;;;;;;;-139.34;100.00;63888.56;10611232;27;19926;-71
2022/03/31 02:00:03;;;;;;;;;;;;;;;-139.34;100.00;63888.56;10604117;27;19926;-72
2022/03/31 02:05:25;;;;;;;;;;;;;;;-139.34;100.00;63888.56;10625734;27;20524;-71
2022/03/31 02:10:47;;;;;;;;;;;;;;;-139.34;100.00;63888.56;10647064;27;19919;-72
2022/03/31 02:16:08;;;;;;;;;;;;;;;-139.34;100.00;63888.56;10640012;27;19923;-70
2022/03/31 02:21:30;;;;;;;;;;;;;;;-139.34;100.00;63888.56;10636330;27;20279;-70
2022/03/31 02:26:52;;;;;;;;;;;;;;;-139.34;100.00;63888.56;10624669;27;19930;-70
2022/03/31 02:32:13;;;;;;;;;;;;;;;-139.34;100.00;63888.56;10622455;27;19926;-71
2022/03/31 02:37:35;;;;;;;;;;;;;;;-139.34;100.00;63888.56;10624793;27;19919;-71
2022/03/31 02:42:56;;;;;;;;;;;;;;;-139.34;100.00;63888.56;10623298;27;19923;-70
2022/03/31 02:48:18;;;;;;;;;;;;;;;-139.34;100.00;63888.56;10619404;27;19924;-71
2022/03/31 02:59:20;;;;;;;;;;;;;;;-139.34;100.00;63888.56;10610912;27;19919;-68
2022/03/31 03:04:42;;;;;;;;;;;;;;;-139.34;100.00;63888.56;10617934;27;19919;-68
2022/03/31 03:10:04;;;;;;;;;;;;;;;-139.34;100.00;63888.56;10604182;27;20360;-69
2022/03/31 03:15:25;;;;;;;;;;;;;;;-139.34;100.00;63888.56;10640672;27;19919;-70
2022/03/31 03:20:47;;;;;;;;;;;;;;;-139.34;100.00;63888.56;10622857;27;19959;-70
2022/03/31 03:26:09;;;;;;;;;;;;;;;-139.34;100.00;63888.56;10621888;27;19922;-70
2022/03/31 03:31:30;;;;;;;;;;;;;;;-139.34;100.00;63888.56;10607007;27;20007;-70
2022/03/31 03:36:52;;;;;;;;;;;;;;;-139.34;100.00;63888.56;10618626;27;20050;-70
2022/03/31 03:42:14;;;;;;;;;;;;;;;-139.34;100.00;63888.56;10615134;27;21225;-70
2022/03/31 03:47:36;;;;;;;;;;;;;;;-139.34;100.00;63888.56;10646806;27;19919;-70
2022/03/31 03:52:57;;;;;;;;;;;;;;;-139.34;100.00;63888.56;10629902;27;19923;-70
2022/03/31 03:58:19;;;;;;;;;;;;;;;-139.34;100.00;63888.56;10610634;27;19919;-70
2022/03/31 04:03:41;;;;;;;;;;;;;;;-139.34;100.00;63888.56;10634896;27;19926;-70
2022/03/31 04:09:03;;;;;;;;;;;;;;;-139.34;100.00;63888.56;10634543;27;19919;-69
2022/03/31 04:14:24;;;;;;;;;;;;;;;-139.34;100.00;63888.56;10626311;27;20314;-70
2022/03/31 04:19:46;;;;;;;;;;;;;;;-139.34;100.00;63888.56;10612983;27;19926;-70
2022/03/31 04:25:08;;;;;;;;;;;;;;;-139.34;100.00;63888.56;10609154;27;20011;-70
2022/03/31 04:30:30;;;;;;;;;;;;;;;-139.34;100.00;63888.56;10655109;27;19919;-70
2022/03/31 04:35:52;;;;;;;;;;;;;;;-139.34;100.00;63888.56;10632661;27;19926;-69
2022/03/31 04:41:13;;;;;;;;;;;;;;;-139.34;100.00;63888.56;10622755;27;19922;-70
2022/03/31 04:46:35;;;;;;;;;;;;;;;-139.34;100.00;63888.56;10647311;27;19919;-70
2022/03/31 04:51:57;;;;;;;;;;;;;;;-139.34;100.00;63888.56;10640812;27;19920;-70
2022/03/31 04:57:20;;;;;;;;;;;;;;;-139.34;100.00;63888.56;10606924;27;19942;-71
2022/03/31 05:02:41;;;;;;;;;;;;;;;-139.34;100.00;63888.56;10627558;27;19967;-70
2022/03/31 05:08:03;;;;;;;;;;;;;;;-139.34;100.00;63888.56;10649253;27;19919;-70
2022/03/31 05:13:25;;;;;;;;;;;;;;;-139.34;100.00;63888.56;10626254;27;19927;-70
2022/03/31 05:18:47;;;;;;;;;;;;;;;-139.34;100.00;63888.56;10656188;27;19930;-70
2022/03/31 05:24:09;;;;;;;;;;;;;;;-139.34;100.00;63888.56;10641628;27;19919;-70
2022/03/31 05:29:31;;;;;;;;;;;;;;;-139.34;100.00;63888.56;10632467;27;19919;-70
2022/03/31 05:34:53;;;;;;;;;;;;;;;-139.34;100.00;63888.56;10647084;27;20010;-70
2022/03/31 05:40:15;;;;;;;;;;;;;;;-139.34;100.00;63888.56;10627918;27;19931;-70
2022/03/31 05:45:37;;;;;;;;;;;;;;;-139.34;100.00;63888.56;10609870;27;20524;-70
2022/03/31 05:50:58;;;;;;;;;;;;;;;-139.34;100.00;63888.56;10633177;27;19923;-70
2022/03/31 05:56:20;;;;;;;;;;;;;;;-139.34;100.00;63888.56;10631312;27;19919;-71
2022/03/31 06:01:42;;;;;;;;;;;;;;;-139.34;100.00;63888.56;10607119;27;19919;-70
2022/03/31 06:07:05;;;;;;;;;;;;;;;-139.34;100.00;63888.56;10611935;27;20023;-69
2022/03/31 06:12:27;;;;;;;;;;;;;;;-139.34;100.00;63888.56;10612526;27;19919;-70
2022/03/31 06:17:48;;;;;;;;;;;;;;;-139.34;100.00;63888.56;10631797;27;20403;-70
2022/03/31 06:23:10;;;;;;;;;;;;;;;-139.34;100.00;63888.56;10625835;27;19930;-70
2022/03/31 06:28:32;;;;;;;;;;;;;;;-139.34;100.00;63888.56;10615820;27;19927;-70
2022/03/31 06:33:54;;;;;;;;;;;;;;;-139.34;100.00;63888.56;10602358;27;19919;-70
2022/03/31 06:39:16;;;;;;;;;;;;;;;-139.34;100.00;63888.56;10620241;27;19926;-70
2022/03/31 06:44:38;;;;;;;;;;;;;;;-139.34;100.00;63888.56;10634721;27;19919;-69
2022/03/31 06:49:59;;;;;;;;;;;;;;;-139.34;100.00;63888.56;10643314;27;19923;-69
2022/03/31 06:55:21;;;;;;;;;;;;;;;-139.34;100.00;63888.56;10610683;27;20406;-68
2022/03/31 07:00:42;;;;;;;;;;;;;;;-139.34;100.00;63888.56;10619217;27;19923;-68
2022/03/31 07:06:06;;;;;;;;;;;;;;;-139.34;100.00;63888.56;10644189;27;20290;-67
2022/03/31 07:11:28;;;;;;;;;;;;;;;-139.34;100.00;63888.56;10634493;27;19968;-67
2022/03/31 07:16:49;;;;;;;;;;;;;;;-139.34;100.00;63888.56;10623070;27;20010;-66
2022/03/31 07:22:11;;;;;;;;;;;;;;;-139.34;100.00;63888.56;10644741;27;19919;-66
2022/03/31 07:27:33;;;;;;;;;;;;;;;-139.34;100.00;63888.56;10635701;27;20346;-67
2022/03/31 07:33:04;;;;;;;;;;;;;;;-139.34;100.00;63888.56;10642580;27;19929;-67
2022/03/31 07:38:26;;;;;;;;;;;;;;;-139.34;100.00;63888.56;10596633;28;19927;-66
2022/03/31 07:43:47;;;;;;;;;;;;;;;-139.34;100.00;63888.56;10604334;27;19933;-66
2022/03/31 07:49:09;;;;;;;;;;;;;;;-139.34;100.00;63888.56;10601054;27;19930;-66
2022/03/31 07:54:31;;;;;;;;;;;;;;;-139.34;100.00;63888.56;10625501;27;19919;-65
2022/03/31 07:59:52;;;;;;;;;;;;;;;-139.34;100.00;63888.56;10619999;27;19918;-66
2022/03/31 08:05:18;;;;;;;;;;;;;;;-139.34;100.00;63888.56;10608891;27;19923;-65
2022/03/31 08:10:40;;;;;;;;;;;;;;;-139.34;100.00;63888.56;10633823;27;19923;-64
2022/03/31 08:16:01;;;;;;;;;;;;;;;-139.34;100.00;63888.56;10608579;27;19919;-64
2022/03/31 08:21:29;;;;;;;;;;;;;;;-139.34;100.00;63888.56;10611701;27;20437;-64
2022/03/31 08:26:50;;;;;;;;;;;;;;;-139.34;100.00;63888.56;10615637;27;19919;-64
2022/03/31 08:32:13;;;;;;;;;;;;;;;-139.34;100.00;63888.56;10634577;27;19926;-64
2022/03/31 08:37:34;;;;;;;;;;;;;;;-139.34;100.00;63888.56;10641131;27;19923;-65
2022/03/31 08:42:56;;;;;;;;;;;;;;;-139.34;100.00;63888.56;10623277;27;19920;-65
2022/03/31 08:48:18;;;;;;;;;;;;;;;-139.34;100.00;63888.56;10610051;27;19926;-65
2022/03/31 08:53:39;;;;;;;;;;;;;;;-139.34;100.00;63888.56;10629527;27;19927;-66
2022/03/31 08:59:01;;;;;;;;;;;;;;;-139.34;100.00;63888.56;10615564;27;19920;-65
2022/03/31 09:04:24;;;;;;;;;;;;;;;-139.34;100.00;63888.56;10596289;27;19926;-65
2022/03/31 09:09:46;;;;;;;;;;;;;;;-139.34;100.00;63888.56;10616073;27;19919;-65
2022/03/31 09:15:09;;;;;;;;;;;;;;;-139.34;100.00;63888.56;10639497;27;19931;-66
2022/03/31 09:20:37;;;;;;;;;;;;;;;-139.34;100.00;63888.56;10612137;27;19927;-67
2022/03/31 09:26:17;;;;;;;;;;;;;;;-139.34;100.00;63888.56;10624421;27;20290;-65
2022/03/31 09:31:40;;;;;;;;;;;;;;;-139.34;100.00;63888.56;10606990;27;19919;-65
2022/03/31 09:37:01;;;;;;;;;;;;;;;-139.34;100.00;63888.56;10613179;27;19920;-65
2022/03/31 09:42:23;;;;;;;;;;;;;;;-139.34;100.00;63888.56;10623092;27;19923;-67
2022/03/31 09:47:47;;;;;;;;;;;;;;;-139.34;100.00;63888.56;10647040;27;20363;-67
2022/03/31 09:53:09;;;;;;;;;;;;;;;-139.34;100.00;63888.56;10618804;27;20025;-68
2022/03/31 09:58:35;;;;;;;;;;;;;;;-139.34;100.00;63888.56;10641333;27;19927;-68
2022/03/31 10:03:57;;;;;;;;;;;;;;;-139.34;100.00;63888.56;10604451;27;19920;-68
2022/03/31 10:09:20;;;;;;;;;;;;;;;-139.34;100.00;63888.56;10589772;27;20286;-69
2022/03/31 10:14:49;;;;;;;;;;;;;;;-139.34;100.00;63888.56;10635897;27;20499;-69
2022/03/31 10:20:11;;;;;;;;;;;;;;;-139.34;100.00;63888.56;10627300;27;20014;-72
2022/03/31 10:25:37;;;;;;;;;;;;;;;-139.34;100.00;63888.56;10611465;27;19914;-73
2022/03/31 10:31:00;;;;;;;;;;;;;;;-139.34;100.00;63888.56;10627109;27;19966;-70
2022/03/31 10:36:21;;;;;;;;;;;;;;;-139.34;100.00;63888.56;10646899;27;19949;-70
2022/03/31 10:41:46;;;;;;;;;;;;;;;-139.34;100.00;63888.56;10646645;27;19919;-69
2022/03/31 10:47:09;;;;;;;;;;;;;;;-139.34;100.00;63888.56;10650758;27;19919;-70
2022/03/31 10:52:32;;;;;;;;;;;;;;;-139.34;100.00;63888.56;10647100;27;19925;-69
2022/03/31 10:57:54;;;;;;;;;;;;;;;-139.34;100.00;63888.56;10618033;27;19922;-69
2022/03/31 11:03:16;;;;;;;;;;;;;;;-139.34;100.00;63888.56;10609929;27;20014;-70
2022/03/31 11:08:43;;;;;;;;;;;;;;;-139.34;100.00;63888.56;10623530;27;19954;-70
2022/03/31 11:14:08;;;;;;;;;;;;;;;-139.34;100.00;63888.56;10628712;27;19925;-70
2022/03/31 11:19:36;;;;;;;;;;;;;;;-139.34;100.00;63888.56;10611508;28;19927;-70
2022/03/31 11:25:08;;;;;;;;;;;;;;;-139.34;100.00;63888.56;10604761;27;20409;-70
2022/03/31 11:30:33;;;;;;;;;;;;;;;-139.34;100.00;63888.56;10633492;27;20341;-69
2022/03/31 11:35:54;;;;;;;;;;;;;;;-139.34;100.00;63888.56;10653346;27;19919;-68
2022/03/31 11:41:16;;;;;;;;;;;;;;;-139.34;100.00;63888.56;10643668;27;20559;-68
2022/03/31 11:46:58;;;;;;;;;;;;;;;-139.34;100.00;63888.56;10652180;27;19923;-69
2022/03/31 11:52:27;;;;;;;;;;;;;;;-139.34;100.00;63888.56;10615630;27;19963;-69
2022/03/31 11:57:52;;;;;;;;;;;;;;;-139.34;100.00;63888.56;10642984;27;20356;-69
2022/03/31 12:03:17;;;;;;;;;;;;;;;-139.34;100.00;63888.56;10652323;27;19948;-68
2022/03/31 12:08:40;;;;;;;;;;;;;;;-139.34;100.00;63888.56;10644219;27;19923;-68
2022/03/31 12:14:02;;;;;;;;;;;;;;;-139.34;100.00;63888.56;10646783;27;19919;-67
2022/03/31 12:19:38;;;;;;;;;;;;;;;-139.34;100.00;63888.56;10621745;27;19928;-68
2022/03/31 12:25:00;;;;;;;;;;;;;;;-139.34;100.00;63888.56;10633591;27;19930;-68
2022/03/31 12:30:21;;;;;;;;;;;;;;;-139.34;100.00;63888.56;10653462;27;19965;-69
2022/03/31 12:35:49;;;;;;;;;;;;;;;-139.34;100.00;63888.56;10663456;27;19930;-68
2022/03/31 12:41:18;;;;;;;;;;;;;;;-139.34;100.00;63888.56;10664007;27;19915;-68
2022/03/31 12:46:42;;;;;;;;;;;;;;;-139.34;100.00;63888.56;10638563;27;20526;-69
2022/03/31 12:52:11;;;;;;;;;;;;;;;-139.34;100.00;63888.56;10635166;27;20357;-70
2022/03/31 12:57:33;;;;;;;;;;;;;;;-139.34;100.00;63888.56;10618997;27;19925;-70
2022/03/31 13:02:56;;;;;;;;;;;;;;;-139.34;100.00;63888.56;10621272;27;19923;-69
2022/03/31 13:08:18;;;;;;;;;;;;;;;-139.34;100.00;63888.56;10618542;27;20685;-68
2022/03/31 13:13:40;;;;;;;;;;;;;;;-139.34;100.00;63888.56;10629871;27;19994;-69
2022/03/31 13:19:10;;;;;;;;;;;;;;;-139.34;100.00;63888.56;10615656;27;19926;-67
2022/03/31 13:24:33;;;;;;;;;;;;;;;-139.34;100.00;63888.56;10617374;27;19926;-68
2022/03/31 13:29:56;;;;;;;;;;;;;;;-139.34;100.00;63888.56;10633352;27;20001;-68
2022/03/31 13:35:18;;;;;;;;;;;;;;;-139.34;100.00;63888.56;10638405;27;20446;-69
2022/03/31 13:40:40;;;;;;;;;;;;;;;-139.34;100.00;63888.56;10635651;27;19923;-68
2022/03/31 13:46:02;;;;;;;;;;;;;;;-139.34;100.00;63888.56;10643026;27;19926;-67
2022/03/31 13:51:24;;;;;;;;;;;;;;;-139.34;100.00;63888.56;10646942;27;19922;-66
2022/03/31 13:56:47;;;;;;;;;;;;;;;-139.34;100.00;63888.56;10607555;27;19930;-66
2022/03/31 14:02:10;;;;;;;;;;;;;;;-139.34;100.00;63888.56;10606493;27;19919;-67
2022/03/31 14:07:32;;;;;;;;;;;;;;;-139.34;100.00;63888.56;10612015;27;20421;-67
2022/03/31 14:12:53;;;;;;;;;;;;;;;-139.34;100.00;63888.56;10613265;27;19923;-68
2022/03/31 14:18:15;;;;;;;;;;;;;;;-139.34;100.00;63888.56;10611398;27;20310;-67
2022/03/31 14:23:36;;;;;;;;;;;;;;;-139.34;100.00;63888.56;10622880;27;19923;-67
2022/03/31 14:28:58;;;;;;;;;;;;;;;-139.34;100.00;63888.56;10612272;27;20468;-67
2022/03/31 14:34:21;;;;;;;;;;;;;;;-139.34;100.00;63888.56;10622807;27;20301;-67
2022/03/31 14:39:42;;;;;;;;;;;;;;;-139.34;100.00;63888.56;10628586;27;19930;-66
2022/03/31 14:45:04;;;;;;;;;;;;;;;-139.34;100.00;63888.56;10611828;27;19923;-67
2022/03/31 14:50:26;;;;;;;;;;;;;;;-139.34;100.00;63888.56;10610964;27;19926;-67
2022/03/31 14:55:48;;;;;;;;;;;;;;;-139.34;100.00;63888.56;10611574;27;20374;-66
2022/03/31 15:01:10;;;;;;;;;;;;;;;-139.34;100.00;63888.56;10631455;27;19923;-67
2022/03/31 15:06:32;;;;;;;;;;;;;;;-139.34;100.00;63888.56;10620032;27;20014;-67
2022/03/31 15:17:34;;;;;;;;;;;;;;;-139.34;100.00;63888.56;10609894;27;19923;-67
2022/03/31 15:22:55;;;;;;;;;;;;;;;-139.34;100.00;63888.56;10604821;27;20406;-68
2022/03/31 15:28:17;;;;;;;;;;;;;;;-139.34;100.00;63888.56;10612912;27;19938;-68
2022/03/31 15:33:39;;;;;;;;;;;;;;;-139.34;100.00;63888.56;10628177;27;20259;-67
2022/03/31 15:39:00;;;;;;;;;;;;;;;-139.34;100.00;63888.56;10633772;27;19935;-67
2022/03/31 15:44:22;;;;;;;;;;;;;;;-139.34;100.00;63888.56;10622409;27;19925;-67
2022/03/31 15:49:43;;;;;;;;;;;;;;;-139.34;100.00;63888.56;10616324;27;20271;-67
2022/03/31 15:55:07;;;;;;;;;;;;;;;-139.34;100.00;63888.56;10609932;27;19923;-67
2022/03/31 16:00:29;;;;;;;;;;;;;;;-139.34;100.00;63888.56;10633938;27;19923;-67
2022/03/31 16:05:50;;;;;;;;;;;;;;;-139.34;100.00;63888.56;10629239;27;19928;-67
2022/03/31 16:11:12;;;;;;;;;;;;;;;-139.34;100.00;63888.56;10616422;27;19923;-67
2022/03/31 16:16:34;;;;;;;;;;;;;;;-139.34;100.00;63888.56;10622661;27;20333;-67
2022/03/31 16:21:56;;;;;;;;;;;;;;;-139.34;100.00;63888.56;10616522;27;20276;-67
2022/03/31 16:27:17;;;;;;;;;;;;;;;-139.34;100.00;63888.56;10604225;27;19927;-67
2022/03/31 16:32:39;;;;;;;;;;;;;;;-139.34;100.00;63888.56;10636996;27;19922;-67
2022/03/31 16:38:01;;;;;;;;;;;;;;;-139.34;100.00;63888.56;10609601;27;19935;-68
2022/03/31 16:43:23;;;;;;;;;;;;;;;-139.34;100.00;63888.56;10615740;27;19923;-67
2022/03/31 16:48:46;;;;;;;;;;;;;;;-139.34;100.00;63888.56;10614973;27;19919;-66
2022/03/31 16:54:08;;;;;;;;;;;;;;;-139.34;100.00;63888.56;10625827;27;20373;-66
2022/03/31 16:59:29;;;;;;;;;;;;;;;-139.34;100.00;63888.56;10623899;27;19923;-67
2022/03/31 17:04:51;;;;;;;;;;;;;;;-139.34;100.00;63888.56;10620057;27;19927;-66
2022/03/31 17:10:14;;;;;;;;;;;;;;;-139.34;100.00;63888.56;10620346;27;19931;-67
2022/03/31 17:15:37;;;;;;;;;;;;;;;-139.34;100.00;63888.56;10617712;27;19924;-66
2022/03/31 17:20:58;;;;;;;;;;;;;;;-139.34;100.00;63888.56;10610484;27;19923;-66
2022/03/31 17:26:20;;;;;;;;;;;;;;;-139.34;100.00;63888.56;10637252;27;20199;-66
2022/03/31 17:31:41;;;;;;;;;;;;;;;-139.34;100.00;63888.56;10627943;27;19923;-66
2022/03/31 17:37:03;;;;;;;;;;;;;;;-139.34;100.00;63888.56;10632474;27;19927;-66
2022/03/31 17:42:25;;;;;;;;;;;;;;;-139.34;100.00;63888.56;10613686;27;19923;-66
2022/03/31 17:47:47;;;;;;;;;;;;;;;-139.34;100.00;63888.56;10623042;27;19926;-66
2022/03/31 17:53:08;;;;;;;;;;;;;;;-139.34;100.00;63888.56;10635946;27;19923;-66
2022/03/31 17:58:30;;;;;;;;;;;;;;;-139.34;100.00;63888.56;10626061;27;19929;-66
2022/03/31 18:03:52;;;;;;;;;;;;;;;-139.34;100.00;63888.56;10624382;27;19934;-67
2022/03/31 18:09:13;;;;;;;;;;;;;;;-139.34;100.00;63888.56;10618556;27;19934;-66
2022/03/31 18:14:35;;;;;;;;;;;;;;;-139.34;100.00;63888.56;10557451;27;306177;-66
2022/03/31 18:19:56;;;;;;;;;;;;;;;-139.34;100.00;63888.56;10486111;28;19924;-66
2022/03/31 18:25:22;;;;;;;;;;;;;;;-139.34;100.00;63888.56;10530843;28;19923;-66
2022/03/31 18:36:25;;;;;;;;;;;;;;;-139.34;100.00;63888.56;10537799;28;20316;-66
2022/03/31 18:41:47;;;;;;;;;;;;;;;-139.34;100.00;63888.56;10516856;28;19920;-66
2022/03/31 18:47:08;;;;;;;;;;;;;;;-139.34;100.00;63888.56;10509089;28;19920;-67
2022/03/31 18:52:30;;;;;;;;;;;;;;;-139.34;100.00;63888.56;10569205;28;19963;-66
2022/03/31 18:57:52;;;;;;;;;;;;;;;-139.34;100.00;63888.56;10548122;28;19930;-66
2022/03/31 19:03:14;;;;;;;;;;;;;;;-139.34;100.00;63888.56;10570159;28;19924;-66
2022/03/31 19:08:35;;;;;;;;;;;;;;;-139.34;100.00;63888.56;10565053;28;20295;-66
2022/03/31 19:13:57;;;;;;;;;;;;;;;-139.34;100.00;63888.56;10536206;28;20084;-67
2022/03/31 19:19:19;;;;;;;;;;;;;;;-139.34;100.00;63888.56;10512312;28;19920;-66
2022/03/31 19:24:40;;;;;;;;;;;;;;;-139.34;100.00;63888.56;10571634;28;20314;-66
2022/03/31 19:30:04;;;;;;;;;;;;;;;-139.34;100.00;63888.56;10558986;28;19935;-66
2022/03/31 19:35:26;;;;;;;;;;;;;;;-139.34;100.00;63888.56;10566879;28;19920;-67
2022/03/31 19:40:48;;;;;;;;;;;;;;;-139.34;100.00;63888.56;10536190;28;19920;-67
2022/03/31 19:46:10;;;;;;;;;;;;;;;-139.34;100.00;63888.56;10518815;28;19920;-66
2022/03/31 19:51:33;;;;;;;;;;;;;;;-139.34;100.00;63888.56;10578887;28;19930;-66
2022/03/31 19:56:55;;;;;;;;;;;;;;;-139.34;100.00;63888.56;10532731;28;20264;-67
2022/03/31 20:02:17;;;;;;;;;;;;;;;-139.34;100.00;63888.56;10543289;28;19926;-66
2022/03/31 20:07:38;;;;;;;;;;;;;;;-139.34;100.00;63888.56;10574256;28;20257;-66
2022/03/31 20:13:04;;;;;;;;;;;;;;;-139.34;100.00;63888.56;10521355;28;20502;-66
2022/03/31 20:18:25;;;;;;;;;;;;;;;-139.34;100.00;63888.56;10562223;27;19926;-66
2022/03/31 20:23:47;;;;;;;;;;;;;;;-139.34;100.00;63888.56;10581210;28;19924;-67
2022/03/31 20:29:11;;;;;;;;;;;;;;;-139.34;100.00;63888.56;10566855;28;19930;-68
2022/03/31 20:34:37;;;;;;;;;;;;;;;-139.34;100.00;63888.56;10568130;28;19962;-68
2022/03/31 20:39:59;;;;;;;;;;;;;;;-139.34;100.00;63888.56;10509359;28;19920;-67
2022/03/31 20:45:20;;;;;;;;;;;;;;;-139.34;100.00;63888.56;10527555;28;19919;-67
2022/03/31 20:50:42;;;;;;;;;;;;;;;-139.34;100.00;63888.56;10578943;28;20064;-66
2022/03/31 20:56:04;;;;;;;;;;;;;;;-139.34;100.00;63888.56;10538319;28;20293;-66
2022/03/31 21:01:32;;;;;;;;;;;;;;;-139.34;100.00;63888.56;10539838;28;19919;-65
2022/03/31 21:07:00;;;;;;;;;;;;;;;-139.34;100.00;63888.56;10571413;28;20006;-68
2022/03/31 21:12:24;;;;;;;;;;;;;;;-139.34;100.00;63888.56;10552409;28;19926;-67
2022/03/31 21:17:46;;;;;;;;;;;;;;;-139.34;100.00;63888.56;10510671;28;19920;-67
2022/03/31 21:23:08;;;;;;;;;;;;;;;-139.34;100.00;63888.56;10545924;28;19927;-67
2022/03/31 21:28:32;;;;;;;;;;;;;;;-139.34;100.00;63888.56;10547710;28;19931;-67
2022/03/31 21:33:54;;;;;;;;;;;;;;;-139.34;100.00;63888.56;10568174;28;20371;-67
2022/03/31 21:39:16;;;;;;;;;;;;;;;-139.34;100.00;63888.56;10571657;28;19923;-67
2022/03/31 21:44:39;;;;;;;;;;;;;;;-139.34;100.00;63888.56;10571777;28;19919;-67
2022/03/31 21:50:01;;;;;;;;;;;;;;;-139.34;100.00;63888.56;10565118;28;19924;-68
2022/03/31 21:55:23;;;;;;;;;;;;;;;-139.34;100.00;63888.56;10527360;28;19925;-67
2022/03/31 22:00:52;;;;;;;;;;;;;;;-139.34;100.00;63888.56;10547982;28;19924;-66
2022/03/31 22:06:14;;;;;;;;;;;;;;;-139.34;100.00;63888.56;10564436;28;20315;-67
2022/03/31 22:11:38;;;;;;;;;;;;;;;-139.34;100.00;63888.56;10561899;28;19924;-66
2022/03/31 22:17:06;;;;;;;;;;;;;;;-139.34;100.00;63888.56;10529270;28;19950;-67
2022/03/31 22:22:27;;;;;;;;;;;;;;;-139.34;100.00;63888.56;10530722;28;19923;-66
2022/03/31 22:27:49;;;;;;;;;;;;;;;-139.34;100.00;63888.56;10546044;28;19920;-65
2022/03/31 22:33:10;;;;;;;;;;;;;;;-139.34;100.00;63888.56;10522010;28;19924;-68
2022/03/31 22:38:32;;;;;;;;;;;;;;;-139.34;100.00;63888.56;10569028;28;19921;-65
2022/03/31 22:43:54;;;;;;;;;;;;;;;-139.34;100.00;63888.56;10536295;28;19919;-65
2022/03/31 22:49:16;;;;;;;;;;;;;;;-139.34;100.00;63888.56;10536508;28;19924;-67
2022/03/31 22:54:38;;;;;;;;;;;;;;;-139.34;100.00;63888.56;10529784;28;19920;-65
2022/03/31 23:00:00;;;;;;;;;;;;;;;-139.34;100.00;63888.56;10551655;28;20266;-66
2022/03/31 23:05:22;;;;;;;;;;;;;;;-139.34;100.00;63888.56;10578045;28;19924;-65
2022/03/31 23:10:43;;;;;;;;;;;;;;;-139.34;100.00;63888.56;10555673;28;19947;-65
2022/03/31 23:16:06;;;;;;;;;;;;;;;-139.34;100.00;63888.56;10548588;28;19920;-65
2022/03/31 23:21:28;;;;;;;;;;;;;;;-139.34;100.00;63888.56;10548410;28;19966;-65
2022/03/31 23:26:49;;;;;;;;;;;;;;;-139.34;100.00;63888.56;10585040;27;20271;-62
2022/03/31 23:32:11;;;;;;;;;;;;;;;-139.34;100.00;63888.56;10591474;28;20254;-66
2022/03/31 23:37:34;;;;;;;;;;;;;;;-139.34;100.00;63888.56;10571847;28;20299;-66
2022/03/31 23:42:56;;;;;;;;;;;;;;;-139.34;100.00;63888.56;10516871;28;19931;-65
2022/03/31 23:48:19;;;;;;;;;;;;;;;-139.34;100.00;63888.56;10546656;28;20667;-66
2022/03/31 23:53:41;;;;;;;;;;;;;;;-139.34;100.00;63888.56;10559093;28;19920;-65
2022/03/31 23:59:02;;;;;;;;;;;;;;;-139.34;100.00;63888.56;10573631;28;19930;-66
